createdAt,value
2023-09-30T00:00:57.646Z,5.8
2023-09-30T00:01:57.902Z,5.5
2023-09-30T00:02:57.761Z,5.3
2023-09-30T00:03:58.281Z,5.9
2023-09-30T00:04:57.367Z,6.1
2023-09-30T00:05:57.881Z,6.1
2023-09-30T00:06:57.658Z,5.1
2023-09-30T00:07:57.484Z,5.1
2023-09-30T00:08:57.390Z,5.9
2023-09-30T00:09:58.163Z,5.5
2023-09-30T00:10:57.894Z,6.4
2023-09-30T00:11:57.664Z,5.6
2023-09-30T00:12:57.510Z,5.8
2023-09-30T00:13:57.508Z,6.1
2023-09-30T00:14:58.156Z,6.5
2023-09-30T00:15:58.042Z,5.2
2023-09-30T00:16:57.521Z,5.0
2023-09-30T00:17:57.283Z,5.8
2023-09-30T00:18:58.282Z,5.4
2023-09-30T00:19:57.785Z,6.3
2023-09-30T00:20:57.703Z,5.8
2023-09-30T00:21:57.826Z,5.1
2023-09-30T00:22:57.605Z,5.6
2023-09-30T00:23:57.630Z,5.2
2023-09-30T00:24:57.360Z,5.2
2023-09-30T00:25:58.148Z,5.4
2023-09-30T00:26:57.738Z,5.1
2023-09-30T00:27:57.551Z,4.6
2023-09-30T00:28:57.604Z,6.2
2023-09-30T00:29:58.190Z,5.6
2023-09-30T00:30:57.968Z,5.2
2023-09-30T00:31:57.604Z,5.2
2023-09-30T00:32:57.468Z,5.5
2023-09-30T00:33:57.792Z,4.9
2023-09-30T00:34:57.809Z,5.6
2023-09-30T00:35:57.843Z,5.4
2023-09-30T00:36:57.461Z,6.1
2023-09-30T00:37:57.292Z,5.5
2023-09-30T00:38:58.250Z,5.5
2023-09-30T00:39:57.873Z,6.2
2023-09-30T00:40:58.047Z,5.8
2023-09-30T00:41:58.306Z,5.3
2023-09-30T00:42:58.585Z,5.0
2023-09-30T00:43:57.763Z,4.9
2023-09-30T00:44:57.469Z,5.4
2023-09-30T00:46:16.140Z,5.6
2023-09-30T00:46:57.802Z,5.8
2023-09-30T00:47:57.582Z,5.8
2023-09-30T00:48:58.237Z,5.6
2023-09-30T00:49:58.055Z,5.6
2023-09-30T00:50:57.830Z,5.2
2023-09-30T00:51:58.020Z,5.5
2023-09-30T00:52:57.607Z,5.7
2023-09-30T00:53:59.217Z,5.7
2023-09-30T00:54:57.844Z,4.4
2023-09-30T00:55:57.336Z,6.0
2023-09-30T00:56:57.527Z,5.7
2023-09-30T00:57:57.264Z,5.1
2023-09-30T00:58:58.194Z,5.4
2023-09-30T00:59:58.728Z,5.3
2023-09-30T01:00:58.539Z,5.9
2023-09-30T01:01:58.801Z,5.7
2023-09-30T01:02:58.531Z,5.4
2023-09-30T01:03:58.468Z,5.6
2023-09-30T01:04:57.737Z,5.6
2023-09-30T01:05:57.633Z,6.2
2023-09-30T01:06:57.338Z,5.4
2023-09-30T01:07:57.947Z,5.4
2023-09-30T01:08:57.742Z,5.3
2023-09-30T01:09:57.492Z,5.6
2023-09-30T01:10:57.332Z,4.4
2023-09-30T01:11:58.020Z,5.6
2023-09-30T01:12:57.800Z,5.2
2023-09-30T01:13:58.304Z,5.0
2023-09-30T01:14:58.423Z,4.9
2023-09-30T01:15:57.671Z,5.3
2023-09-30T01:16:58.110Z,5.5
2023-09-30T01:17:57.738Z,5.2
2023-09-30T01:18:57.474Z,5.5
2023-09-30T01:19:57.630Z,6.0
2023-09-30T01:21:01.432Z,5.3
2023-09-30T01:21:57.814Z,5.8
2023-09-30T01:22:57.732Z,5.3
2023-09-30T01:23:57.610Z,6.1
2023-09-30T01:24:58.305Z,5.4
2023-09-30T01:26:01.086Z,5.4
2023-09-30T01:26:57.679Z,5.9
2023-09-30T01:27:57.470Z,5.4
2023-09-30T01:28:57.347Z,6.5
2023-09-30T01:29:57.979Z,6.0
2023-09-30T01:30:57.893Z,5.5
2023-09-30T01:31:57.538Z,5.3
2023-09-30T01:32:57.360Z,5.5
2023-09-30T01:33:59.392Z,5.1
2023-09-30T01:34:57.975Z,5.4
2023-09-30T01:35:57.641Z,5.2
2023-09-30T01:36:57.426Z,4.9
2023-09-30T01:37:57.288Z,5.4
2023-09-30T01:38:58.170Z,5.4
2023-09-30T01:39:57.748Z,5.0
2023-09-30T01:41:00.458Z,5.6
2023-09-30T01:41:57.306Z,5.1
2023-09-30T01:42:57.494Z,6.1
2023-09-30T01:43:57.467Z,5.7
2023-09-30T01:44:58.173Z,5.3
2023-09-30T01:45:57.881Z,4.6
2023-09-30T01:46:57.730Z,4.4
2023-09-30T01:47:57.453Z,4.0
2023-09-30T01:48:57.227Z,4.7
2023-09-30T01:49:57.957Z,4.8
2023-09-30T01:50:57.627Z,4.6
2023-09-30T01:51:57.397Z,5.3
2023-09-30T01:52:57.258Z,5.0
2023-09-30T01:53:58.126Z,4.7
2023-09-30T01:54:57.840Z,5.8
2023-09-30T01:55:57.518Z,6.0
2023-09-30T01:56:57.367Z,5.0
2023-09-30T01:57:57.947Z,5.4
2023-09-30T01:58:57.337Z,5.7
2023-09-30T01:59:58.057Z,5.3
2023-09-30T02:01:03.520Z,5.4
2023-09-30T02:01:57.597Z,5.8
2023-09-30T02:02:57.649Z,5.3
2023-09-30T02:03:57.594Z,6.0
2023-09-30T02:04:57.982Z,6.0
2023-09-30T02:05:57.772Z,5.8
2023-09-30T02:06:57.902Z,5.3
2023-09-30T02:07:57.952Z,5.6
2023-09-30T02:08:57.526Z,5.5
2023-09-30T02:09:57.538Z,5.8
2023-09-30T02:10:58.094Z,5.7
2023-09-30T02:11:57.813Z,6.5
2023-09-30T02:12:57.675Z,5.5
2023-09-30T02:13:58.487Z,6.7
2023-09-30T02:14:58.667Z,5.9
2023-09-30T02:15:57.731Z,6.2
2023-09-30T02:16:57.196Z,5.7
2023-09-30T02:17:57.953Z,5.7
2023-09-30T02:18:58.860Z,5.6
2023-09-30T02:19:57.476Z,6.0
2023-09-30T02:20:57.368Z,5.8
2023-09-30T02:21:58.004Z,5.7
2023-09-30T02:22:57.785Z,5.9
2023-09-30T02:23:57.744Z,6.1
2023-09-30T02:24:57.337Z,6.4
2023-09-30T02:25:57.309Z,5.8
2023-09-30T02:26:57.987Z,4.4
2023-09-30T02:27:57.661Z,4.6
2023-09-30T02:28:57.475Z,5.0
2023-09-30T02:29:57.215Z,5.5
2023-09-30T02:30:59.496Z,5.4
2023-09-30T02:31:58.203Z,5.2
2023-09-30T02:32:57.986Z,4.9
2023-09-30T02:33:57.741Z,4.9
2023-09-30T02:34:57.488Z,5.1
2023-09-30T02:35:57.293Z,6.2
2023-09-30T02:36:58.044Z,5.5
2023-09-30T02:37:57.809Z,5.6
2023-09-30T02:38:57.723Z,6.7
2023-09-30T02:39:57.582Z,5.9
2023-09-30T02:40:57.386Z,5.5
2023-09-30T02:41:57.972Z,5.7
2023-09-30T02:42:57.642Z,5.6
2023-09-30T02:43:57.588Z,6.4
2023-09-30T02:44:59.723Z,4.8
2023-09-30T02:45:57.999Z,4.4
2023-09-30T02:46:57.838Z,5.3
2023-09-30T02:47:57.592Z,4.6
2023-09-30T02:48:57.479Z,4.8
2023-09-30T02:49:57.538Z,4.7
2023-09-30T02:50:57.746Z,5.3
2023-09-30T02:51:57.753Z,5.7
2023-09-30T02:52:57.446Z,4.7
2023-09-30T02:53:57.899Z,6.0
2023-09-30T02:54:58.536Z,5.8
2023-09-30T02:55:57.224Z,5.3
2023-09-30T02:56:57.524Z,5.6
2023-09-30T02:57:57.287Z,5.9
2023-09-30T02:58:58.168Z,5.2
2023-09-30T02:59:57.250Z,6.1
2023-09-30T03:00:58.138Z,6.0
2023-09-30T03:01:57.832Z,5.9
2023-09-30T03:02:57.603Z,6.0
2023-09-30T03:03:57.912Z,4.9
2023-09-30T03:04:58.042Z,5.7
2023-09-30T03:05:57.933Z,5.8
2023-09-30T03:06:57.846Z,5.4
2023-09-30T03:07:57.397Z,5.8
2023-09-30T03:08:57.202Z,5.7
2023-09-30T03:09:57.934Z,5.7
2023-09-30T03:10:57.686Z,5.7
2023-09-30T03:11:57.672Z,5.1
2023-09-30T03:12:57.334Z,5.2
2023-09-30T03:13:58.347Z,5.5
2023-09-30T03:14:57.741Z,6.0
2023-09-30T03:15:57.560Z,5.5
2023-09-30T03:17:00.517Z,5.7
2023-09-30T03:17:57.887Z,4.9
2023-09-30T03:18:57.477Z,5.3
2023-09-30T03:19:57.716Z,5.4
2023-09-30T03:21:01.731Z,5.5
2023-09-30T03:21:57.286Z,5.2
2023-09-30T03:22:58.086Z,5.6
2023-09-30T03:23:57.438Z,5.6
2023-09-30T03:24:57.952Z,5.1
2023-09-30T03:25:57.988Z,5.8
2023-09-30T03:26:58.014Z,6.0
2023-09-30T03:27:57.773Z,5.8
2023-09-30T03:28:57.633Z,4.6
2023-09-30T03:29:57.369Z,5.4
2023-09-30T03:30:58.098Z,5.8
2023-09-30T03:31:57.967Z,6.2
2023-09-30T03:32:57.383Z,5.6
2023-09-30T03:33:58.074Z,5.2
2023-09-30T03:34:57.661Z,5.3
2023-09-30T03:35:57.425Z,5.2
2023-09-30T03:36:57.727Z,5.9
2023-09-30T03:37:57.666Z,4.5
2023-09-30T03:38:57.806Z,5.0
2023-09-30T03:39:57.935Z,5.8
2023-09-30T03:40:57.797Z,5.8
2023-09-30T03:41:57.523Z,4.6
2023-09-30T03:42:57.405Z,5.4
2023-09-30T03:43:58.126Z,6.0
2023-09-30T03:44:57.778Z,5.2
2023-09-30T03:45:57.184Z,6.0
2023-09-30T03:46:57.846Z,5.7
2023-09-30T03:47:57.671Z,5.3
2023-09-30T03:48:57.551Z,5.0
2023-09-30T03:49:57.416Z,5.4
2023-09-30T03:50:57.916Z,4.8
2023-09-30T03:51:57.830Z,5.1
2023-09-30T03:53:04.253Z,4.8
2023-09-30T03:53:57.581Z,4.8
2023-09-30T03:54:57.956Z,5.0
2023-09-30T03:55:57.799Z,5.2
2023-09-30T03:56:57.582Z,5.1
2023-09-30T03:57:57.477Z,5.6
2023-09-30T03:58:58.074Z,5.7
2023-09-30T03:59:57.905Z,5.7
2023-09-30T04:00:57.934Z,4.8
2023-09-30T04:01:57.672Z,5.2
2023-09-30T04:02:57.396Z,5.8
2023-09-30T04:03:58.270Z,5.3
2023-09-30T04:04:57.755Z,5.2
2023-09-30T04:05:57.687Z,3.9
2023-09-30T04:06:57.342Z,5.2
2023-09-30T04:07:58.192Z,5.2
2023-09-30T04:08:57.829Z,5.7
2023-09-30T04:09:57.793Z,5.7
2023-09-30T04:10:57.456Z,4.8
2023-09-30T04:11:57.214Z,4.8
2023-09-30T04:12:57.955Z,4.9
2023-09-30T04:13:57.866Z,5.4
2023-09-30T04:14:57.453Z,5.0
2023-09-30T04:15:57.398Z,5.4
2023-09-30T04:16:57.997Z,4.4
2023-09-30T04:17:57.906Z,5.6
2023-09-30T04:18:57.611Z,6.0
2023-09-30T04:19:57.576Z,5.0
2023-09-30T04:20:57.166Z,5.4
2023-09-30T04:21:57.791Z,5.7
2023-09-30T04:22:57.902Z,4.8
2023-09-30T04:23:57.688Z,5.2
2023-09-30T04:24:57.680Z,5.3
2023-09-30T04:25:57.415Z,5.1
2023-09-30T04:26:57.382Z,4.8
2023-09-30T04:27:57.985Z,5.1
2023-09-30T04:28:57.741Z,5.1
2023-09-30T04:29:57.962Z,5.5
2023-09-30T04:30:58.196Z,5.4
2023-09-30T04:31:57.720Z,4.4
2023-09-30T04:32:57.408Z,5.2
2023-09-30T04:33:58.275Z,4.8
2023-09-30T04:34:57.774Z,4.8
2023-09-30T04:35:57.583Z,5.1
2023-09-30T04:36:57.482Z,5.3
2023-09-30T04:37:57.319Z,5.5
2023-09-30T04:38:57.995Z,5.9
2023-09-30T04:39:57.729Z,5.2
2023-09-30T04:40:57.546Z,5.1
2023-09-30T04:41:57.462Z,5.7
2023-09-30T04:42:57.921Z,5.7
2023-09-30T04:43:57.930Z,5.6
2023-09-30T04:44:57.574Z,5.9
2023-09-30T04:45:57.372Z,5.0
2023-09-30T04:46:58.169Z,4.5
2023-09-30T04:47:57.902Z,4.9
2023-09-30T04:48:57.689Z,4.8
2023-09-30T04:49:57.519Z,5.0
2023-09-30T04:50:57.261Z,5.5
2023-09-30T04:51:57.886Z,3.9
2023-09-30T04:52:57.673Z,5.2
2023-09-30T04:53:57.738Z,5.3
2023-09-30T04:54:57.274Z,5.9
2023-09-30T04:55:58.015Z,4.6
2023-09-30T04:56:57.951Z,4.8
2023-09-30T04:57:57.760Z,5.7
2023-09-30T04:58:57.483Z,5.1
2023-09-30T04:59:57.232Z,4.4
2023-09-30T05:00:57.996Z,5.6
2023-09-30T05:01:57.622Z,5.2
2023-09-30T05:02:57.572Z,5.2
2023-09-30T05:03:57.587Z,5.4
2023-09-30T05:04:57.934Z,5.2
2023-09-30T05:05:57.781Z,5.8
2023-09-30T05:06:57.523Z,4.8
2023-09-30T05:07:57.314Z,4.8
2023-09-30T05:08:58.036Z,5.5
2023-09-30T05:09:57.740Z,5.6
2023-09-30T05:10:57.683Z,5.2
2023-09-30T05:11:57.368Z,5.0
2023-09-30T05:12:58.048Z,5.2
2023-09-30T05:13:58.056Z,5.8
2023-09-30T05:14:57.647Z,5.0
2023-09-30T05:15:57.612Z,5.7
2023-09-30T05:16:57.431Z,4.6
2023-09-30T05:17:57.981Z,4.8
2023-09-30T05:18:57.930Z,4.9
2023-09-30T05:19:57.495Z,5.5
2023-09-30T05:20:57.753Z,5.9
2023-09-30T05:21:57.497Z,5.1
2023-09-30T05:22:57.297Z,5.2
2023-09-30T05:23:58.418Z,5.3
2023-09-30T05:24:57.881Z,5.0
2023-09-30T05:25:57.658Z,4.1
2023-09-30T05:26:57.446Z,4.9
2023-09-30T05:27:57.248Z,4.8
2023-09-30T05:28:57.932Z,4.9
2023-09-30T05:29:57.688Z,4.8
2023-09-30T05:30:57.504Z,4.1
2023-09-30T05:31:57.297Z,5.0
2023-09-30T05:32:57.988Z,4.7
2023-09-30T05:33:58.117Z,4.8
2023-09-30T05:34:57.583Z,4.6
2023-09-30T05:35:57.596Z,4.7
2023-09-30T05:36:57.651Z,5.3
2023-09-30T05:37:57.388Z,4.4
2023-09-30T05:38:57.203Z,4.9
2023-09-30T05:39:57.917Z,5.2
2023-09-30T05:40:57.623Z,4.1
2023-09-30T05:41:57.792Z,4.9
2023-09-30T05:42:57.577Z,4.6
2023-09-30T05:43:58.190Z,4.6
2023-09-30T05:44:58.002Z,4.1
2023-09-30T05:45:59.608Z,4.6
2023-09-30T05:46:57.350Z,4.3
2023-09-30T05:47:58.039Z,4.6
2023-09-30T05:48:58.087Z,4.9
2023-09-30T05:49:57.697Z,5.2
2023-09-30T05:50:57.477Z,4.9
2023-09-30T05:51:57.588Z,5.1
2023-09-30T05:52:57.599Z,4.6
2023-09-30T05:53:57.162Z,4.4
2023-09-30T05:54:57.981Z,5.2
2023-09-30T05:55:57.766Z,4.6
2023-09-30T05:56:57.549Z,4.3
2023-09-30T05:57:57.376Z,5.2
2023-09-30T05:58:58.073Z,4.6
2023-09-30T05:59:57.833Z,5.0
2023-09-30T06:00:57.613Z,4.3
2023-09-30T06:01:57.631Z,4.5
2023-09-30T06:02:57.715Z,4.7
2023-09-30T06:03:57.974Z,4.8
2023-09-30T06:04:57.714Z,4.1
2023-09-30T06:05:57.655Z,4.4
2023-09-30T06:06:57.355Z,4.9
2023-09-30T06:07:58.067Z,4.7
2023-09-30T06:08:57.855Z,4.1
2023-09-30T06:09:57.546Z,4.3
2023-09-30T06:10:57.282Z,4.3
2023-09-30T06:11:58.013Z,4.6
2023-09-30T06:12:57.856Z,4.4
2023-09-30T06:13:58.044Z,4.4
2023-09-30T06:14:57.476Z,5.5
2023-09-30T06:15:57.274Z,4.9
2023-09-30T06:16:57.853Z,5.0
2023-09-30T06:17:58.081Z,5.1
2023-09-30T06:18:57.670Z,5.0
2023-09-30T06:19:57.408Z,4.3
2023-09-30T06:20:57.938Z,4.4
2023-09-30T06:21:57.850Z,5.3
2023-09-30T06:22:58.022Z,4.6
2023-09-30T06:23:57.810Z,4.8
2023-09-30T06:24:58.174Z,4.4
2023-09-30T06:25:59.367Z,4.7
2023-09-30T06:26:57.616Z,4.3
2023-09-30T06:28:00.944Z,4.7
2023-09-30T06:28:57.408Z,4.8
2023-09-30T06:29:57.921Z,4.6
2023-09-30T06:30:57.885Z,5.3
2023-09-30T06:31:57.439Z,4.8
2023-09-30T06:32:57.302Z,4.6
2023-09-30T06:33:57.986Z,4.9
2023-09-30T06:34:57.883Z,4.9
2023-09-30T06:35:57.926Z,5.0
2023-09-30T06:36:57.816Z,5.2
2023-09-30T06:37:57.581Z,4.6
2023-09-30T06:38:57.653Z,3.9
2023-09-30T06:39:57.253Z,3.9
2023-09-30T06:40:57.894Z,4.3
2023-09-30T06:41:57.676Z,5.2
2023-09-30T06:42:57.439Z,4.6
2023-09-30T06:43:57.238Z,4.4
2023-09-30T06:44:57.946Z,5.0
2023-09-30T06:45:58.015Z,5.4
2023-09-30T06:46:57.601Z,3.7
2023-09-30T06:47:57.417Z,4.8
2023-09-30T06:48:57.400Z,5.0
2023-09-30T06:49:57.863Z,5.2
2023-09-30T06:50:57.720Z,4.5
2023-09-30T06:51:57.475Z,4.5
2023-09-30T06:52:57.262Z,5.2
2023-09-30T06:53:57.361Z,5.2
2023-09-30T06:54:57.292Z,5.0
2023-09-30T06:55:58.156Z,6.7
2023-09-30T06:56:57.878Z,6.7
2023-09-30T06:57:57.646Z,6.2
2023-09-30T06:58:57.616Z,6.6
2023-09-30T06:59:57.212Z,6.6
2023-09-30T07:00:57.995Z,5.6
2023-09-30T07:01:57.986Z,6.3
2023-09-30T07:02:59.126Z,6.5
2023-09-30T07:03:57.419Z,7.4
2023-09-30T07:04:57.992Z,7.7
2023-09-30T07:05:57.908Z,7.8
2023-09-30T07:06:58.074Z,8.0
2023-09-30T07:07:57.866Z,7.3
2023-09-30T07:08:57.847Z,8.1
2023-09-30T07:09:57.440Z,8.2
2023-09-30T07:10:57.273Z,8.4
2023-09-30T07:11:58.034Z,8.5
2023-09-30T07:12:57.572Z,8.5
2023-09-30T07:13:57.961Z,8.9
2023-09-30T07:14:58.397Z,8.5
2023-09-30T07:15:57.737Z,9.2
2023-09-30T07:16:57.385Z,9.1
2023-09-30T07:17:57.303Z,8.6
2023-09-30T07:18:57.565Z,9.0
2023-09-30T07:19:57.706Z,9.8
2023-09-30T07:20:57.223Z,9.0
2023-09-30T07:22:04.794Z,9.5
2023-09-30T07:23:11.375Z,9.4
2023-09-30T07:23:57.626Z,9.7
2023-09-30T07:24:57.847Z,9.6
2023-09-30T07:25:57.676Z,9.6
2023-09-30T07:26:57.493Z,9.3
2023-09-30T07:27:58.268Z,10.0
2023-09-30T07:28:58.169Z,10.3
2023-09-30T07:29:57.457Z,9.0
2023-09-30T07:30:58.082Z,9.2
2023-09-30T07:31:57.392Z,9.0
2023-09-30T07:32:57.681Z,10.1
2023-09-30T07:33:57.495Z,10.3
2023-09-30T07:34:57.664Z,9.9
2023-09-30T07:35:57.432Z,10.2
2023-09-30T07:36:57.285Z,9.0
2023-09-30T07:37:58.105Z,10.2
2023-09-30T07:38:57.636Z,9.8
2023-09-30T07:39:58.169Z,10.1
2023-09-30T07:40:57.826Z,11.7
2023-09-30T07:41:57.661Z,9.8
2023-09-30T07:42:57.830Z,10.7
2023-09-30T07:43:57.589Z,9.6
2023-09-30T07:44:57.386Z,10.0
2023-09-30T07:45:59.982Z,10.7
2023-09-30T07:46:57.855Z,10.6
2023-09-30T07:47:57.308Z,10.3
2023-09-30T07:48:58.252Z,10.1
2023-09-30T07:49:57.691Z,10.4
2023-09-30T07:50:57.455Z,9.5
2023-09-30T07:51:57.384Z,9.2
2023-09-30T07:52:57.521Z,9.1
2023-09-30T07:54:07.356Z,10.5
2023-09-30T07:54:58.045Z,9.7
2023-09-30T07:55:57.784Z,10.2
2023-09-30T07:56:57.686Z,10.5
2023-09-30T07:57:57.828Z,10.3
2023-09-30T07:58:57.959Z,10.1
2023-09-30T07:59:57.825Z,10.3
2023-09-30T08:00:57.672Z,10.0
2023-09-30T08:01:57.702Z,9.6
2023-09-30T08:02:57.760Z,8.9
2023-09-30T08:03:58.019Z,10.6
2023-09-30T08:04:57.771Z,9.9
2023-09-30T08:05:57.511Z,10.3
2023-09-30T08:06:57.498Z,9.8
2023-09-30T08:07:58.019Z,10.0
2023-09-30T08:08:58.170Z,9.5
2023-09-30T08:09:57.636Z,9.6
2023-09-30T08:10:57.811Z,9.9
2023-09-30T08:11:57.610Z,10.3
2023-09-30T08:12:57.485Z,9.6
2023-09-30T08:13:57.217Z,10.1
2023-09-30T08:14:57.703Z,8.9
2023-09-30T08:15:57.807Z,9.8
2023-09-30T08:16:57.500Z,8.6
2023-09-30T08:17:57.262Z,9.3
2023-09-30T08:18:57.759Z,9.8
2023-09-30T08:19:57.443Z,9.2
2023-09-30T08:20:57.916Z,8.6
2023-09-30T08:21:57.825Z,8.8
2023-09-30T08:22:57.582Z,9.9
2023-09-30T08:23:57.577Z,8.8
2023-09-30T08:24:58.128Z,8.2
2023-09-30T08:26:00.352Z,8.9
2023-09-30T08:26:57.712Z,9.3
2023-09-30T08:27:57.416Z,9.2
2023-09-30T08:28:57.800Z,9.7
2023-09-30T08:29:57.441Z,9.2
2023-09-30T08:31:02.204Z,9.5
2023-09-30T08:31:57.459Z,9.1
2023-09-30T08:32:57.265Z,9.6
2023-09-30T08:33:57.488Z,9.7
2023-09-30T08:34:57.640Z,8.8
2023-09-30T08:36:02.578Z,8.5
2023-09-30T08:36:57.403Z,9.8
2023-09-30T08:37:58.080Z,8.8
2023-09-30T08:38:57.973Z,9.6
2023-09-30T08:39:58.044Z,9.0
2023-09-30T08:40:57.597Z,9.0
2023-09-30T08:41:57.644Z,8.4
2023-09-30T08:42:57.577Z,8.6
2023-09-30T08:43:59.884Z,8.3
2023-09-30T08:44:57.714Z,9.0
2023-09-30T08:45:58.212Z,9.2
2023-09-30T08:46:57.839Z,9.5
2023-09-30T08:47:57.345Z,8.8
2023-09-30T08:48:58.265Z,8.2
2023-09-30T08:49:59.130Z,9.1
2023-09-30T08:50:59.099Z,10.0
2023-09-30T08:51:59.289Z,9.7
2023-09-30T08:52:58.004Z,8.1
2023-09-30T08:53:58.396Z,9.0
2023-09-30T08:54:58.155Z,8.7
2023-09-30T08:55:57.995Z,9.5
2023-09-30T08:56:57.919Z,8.3
2023-09-30T08:57:59.812Z,8.8
2023-09-30T08:58:57.831Z,7.5
2023-09-30T08:59:58.417Z,8.9
2023-09-30T09:00:58.556Z,8.6
2023-09-30T09:01:57.574Z,8.0
2023-09-30T09:02:57.337Z,8.9
2023-09-30T09:03:58.182Z,7.7
2023-09-30T09:04:58.446Z,8.9
2023-09-30T09:05:58.230Z,8.6
2023-09-30T09:06:58.213Z,8.0
2023-09-30T09:07:57.568Z,8.8
2023-09-30T09:09:02.625Z,8.5
2023-09-30T09:10:08.668Z,7.9
2023-09-30T09:10:58.456Z,7.7
2023-09-30T09:11:57.929Z,8.7
2023-09-30T09:12:58.218Z,9.4
2023-09-30T09:13:57.531Z,8.4
2023-09-30T09:14:57.973Z,8.4
2023-09-30T09:16:07.150Z,8.6
2023-09-30T09:16:57.897Z,8.5
2023-09-30T09:17:58.790Z,8.6
2023-09-30T09:18:57.874Z,8.7
2023-09-30T09:20:00.401Z,8.2
2023-09-30T09:21:09.700Z,9.2
2023-09-30T09:22:01.920Z,8.3
2023-09-30T09:22:57.690Z,9.4
2023-09-30T09:23:57.882Z,8.9
2023-09-30T09:24:59.123Z,8.1
2023-09-30T09:25:57.576Z,8.6
2023-09-30T09:27:10.001Z,9.6
2023-09-30T09:27:57.618Z,8.6
2023-09-30T09:28:58.464Z,8.6
2023-09-30T09:29:57.554Z,8.5
2023-09-30T09:30:57.450Z,8.2
2023-09-30T09:32:09.576Z,8.6
2023-09-30T09:33:05.635Z,8.2
2023-09-30T09:33:57.907Z,8.8
2023-09-30T09:35:01.486Z,8.4
2023-09-30T09:35:57.717Z,8.0
2023-09-30T09:36:57.639Z,8.0
2023-09-30T09:38:04.662Z,8.7
2023-09-30T09:38:58.090Z,8.6
2023-09-30T09:39:57.709Z,8.4
2023-09-30T09:40:59.447Z,8.3
2023-09-30T09:41:57.903Z,8.2
2023-09-30T09:42:57.851Z,8.3
2023-09-30T09:43:59.009Z,7.4
2023-09-30T09:44:59.728Z,8.6
2023-09-30T09:45:57.993Z,8.4
2023-09-30T09:46:58.197Z,8.1
2023-09-30T09:47:58.126Z,7.6
2023-09-30T09:48:58.018Z,7.7
2023-09-30T09:49:57.890Z,8.2
2023-09-30T09:50:58.044Z,7.7
2023-09-30T09:51:59.023Z,8.2
2023-09-30T09:52:58.881Z,8.1
2023-09-30T09:53:57.916Z,7.6
2023-09-30T09:54:57.762Z,7.5
2023-09-30T09:55:59.730Z,8.3
2023-09-30T09:57:00.544Z,7.5
2023-09-30T09:57:58.230Z,8.9
2023-09-30T09:58:57.700Z,8.8
2023-09-30T09:59:59.796Z,8.5
2023-09-30T10:00:58.436Z,7.8
2023-09-30T10:01:58.849Z,8.1
2023-09-30T10:02:57.709Z,8.8
2023-09-30T10:03:57.822Z,8.3
2023-09-30T10:04:58.134Z,8.3
2023-09-30T10:05:57.566Z,8.1
2023-09-30T10:06:57.408Z,8.2
2023-09-30T10:08:01.964Z,8.0
2023-09-30T10:08:57.979Z,7.6
2023-09-30T10:09:59.233Z,7.6
2023-09-30T10:10:57.313Z,8.5
2023-09-30T10:11:59.141Z,8.1
2023-09-30T10:12:57.379Z,8.5
2023-09-30T10:13:58.419Z,7.9
2023-09-30T10:14:57.313Z,7.0
2023-09-30T10:15:58.093Z,7.8
2023-09-30T10:16:57.383Z,8.7
2023-09-30T10:18:01.607Z,7.9
2023-09-30T10:19:10.717Z,7.2
2023-09-30T10:20:04.091Z,7.9
2023-09-30T10:21:02.293Z,8.5
2023-09-30T10:22:15.015Z,8.6
2023-09-30T10:23:16.091Z,7.9
2023-09-30T10:24:02.599Z,7.9
2023-09-30T10:24:58.091Z,8.8
2023-09-30T10:26:11.176Z,7.2
2023-09-30T10:27:16.051Z,7.3
2023-09-30T10:27:57.988Z,7.6
2023-09-30T10:29:02.604Z,7.0
2023-09-30T10:30:05.318Z,7.6
2023-09-30T10:31:09.651Z,8.6
2023-09-30T10:31:57.964Z,8.1
2023-09-30T10:33:05.286Z,8.7
2023-09-30T10:34:05.148Z,7.6
2023-09-30T10:34:57.585Z,8.0
2023-09-30T10:35:57.467Z,8.4
2023-09-30T10:36:57.483Z,8.2
2023-09-30T10:38:15.025Z,8.2
2023-09-30T10:38:58.401Z,8.1
2023-09-30T10:40:00.657Z,7.6
2023-09-30T10:40:57.511Z,6.9
2023-09-30T10:41:57.307Z,7.2
2023-09-30T10:42:58.166Z,8.2
2023-09-30T10:43:57.849Z,9.4
2023-09-30T10:44:57.152Z,7.9
2023-09-30T10:45:57.832Z,7.8
2023-09-30T10:46:58.187Z,7.1
2023-09-30T10:47:57.462Z,8.6
2023-09-30T10:48:57.523Z,7.2
2023-09-30T10:49:57.538Z,8.4
2023-09-30T10:50:58.119Z,6.9
2023-09-30T10:51:59.021Z,7.3
2023-09-30T10:53:03.142Z,6.8
2023-09-30T10:53:57.552Z,7.7
2023-09-30T10:55:04.091Z,7.5
2023-09-30T10:55:59.116Z,7.1
2023-09-30T10:56:58.564Z,7.0
2023-09-30T10:57:57.764Z,7.1
2023-09-30T10:58:57.722Z,7.6
2023-09-30T11:00:12.881Z,7.8
2023-09-30T11:00:57.656Z,8.1
2023-09-30T11:01:57.563Z,7.0
2023-09-30T11:03:00.599Z,7.9
2023-09-30T11:04:01.657Z,7.1
2023-09-30T11:04:57.851Z,7.1
2023-09-30T11:06:11.663Z,8.2
2023-09-30T11:06:59.354Z,7.4
2023-09-30T11:07:57.738Z,7.6
2023-09-30T11:08:58.269Z,7.7
2023-09-30T11:10:01.100Z,7.0
2023-09-30T11:10:57.786Z,6.9
2023-09-30T11:11:57.563Z,6.3
2023-09-30T11:12:58.090Z,7.5
2023-09-30T11:13:57.503Z,7.5
2023-09-30T11:15:00.385Z,7.9
2023-09-30T11:16:01.767Z,7.3
2023-09-30T11:16:58.428Z,6.7
2023-09-30T11:18:02.895Z,7.2
2023-09-30T11:18:58.207Z,7.1
2023-09-30T11:19:57.672Z,7.8
2023-09-30T11:21:07.743Z,7.6
2023-09-30T11:21:57.409Z,7.8
2023-09-30T11:22:57.986Z,7.2
2023-09-30T11:23:57.762Z,8.0
2023-09-30T11:24:57.602Z,7.1
2023-09-30T11:25:57.524Z,7.1
2023-09-30T11:26:58.034Z,7.3
2023-09-30T11:28:02.248Z,7.3
2023-09-30T11:29:02.882Z,7.2
2023-09-30T11:29:57.871Z,6.6
2023-09-30T11:31:00.806Z,7.4
2023-09-30T11:31:57.580Z,7.2
2023-09-30T11:33:00.373Z,7.4
2023-09-30T11:33:57.699Z,7.2
2023-09-30T11:34:57.339Z,6.7
2023-09-30T11:36:04.544Z,7.3
2023-09-30T11:36:57.371Z,7.6
2023-09-30T11:37:58.010Z,7.1
2023-09-30T11:38:58.961Z,7.3
2023-09-30T11:40:02.442Z,7.9
2023-09-30T11:41:03.984Z,7.9
2023-09-30T11:41:57.414Z,7.2
2023-09-30T11:43:07.198Z,7.1
2023-09-30T11:44:02.561Z,7.4
2023-09-30T11:44:57.554Z,7.7
2023-09-30T11:46:07.230Z,7.1
2023-09-30T11:46:58.757Z,6.9
2023-09-30T11:47:57.797Z,7.2
2023-09-30T11:48:58.946Z,8.2
2023-09-30T11:49:57.381Z,7.2
2023-09-30T11:50:59.280Z,6.9
2023-09-30T11:51:58.566Z,7.8
2023-09-30T11:52:57.637Z,7.2
2023-09-30T11:53:57.414Z,7.5
2023-09-30T11:54:57.376Z,6.6
2023-09-30T11:55:58.367Z,6.8
2023-09-30T11:56:57.734Z,6.8
2023-09-30T11:57:57.543Z,6.8
2023-09-30T11:58:57.808Z,7.4
2023-09-30T11:59:57.867Z,7.3
2023-09-30T12:01:00.334Z,6.9
2023-09-30T12:02:12.690Z,6.8
2023-09-30T12:02:57.326Z,6.9
2023-09-30T12:03:59.124Z,6.9
2023-09-30T12:04:57.881Z,8.1
2023-09-30T12:05:58.057Z,7.2
2023-09-30T12:06:57.581Z,7.3
2023-09-30T12:07:57.221Z,7.1
2023-09-30T12:08:58.122Z,6.9
2023-09-30T12:09:57.779Z,6.7
2023-09-30T12:10:57.497Z,7.2
2023-09-30T12:11:57.516Z,7.7
2023-09-30T12:12:58.058Z,7.0
2023-09-30T12:13:58.020Z,7.7
2023-09-30T12:14:58.069Z,7.5
2023-09-30T12:15:57.842Z,6.6
2023-09-30T12:16:57.900Z,6.1
2023-09-30T12:17:57.551Z,7.2
2023-09-30T12:18:57.556Z,6.5
2023-09-30T12:19:57.906Z,6.5
2023-09-30T12:20:57.711Z,6.2
2023-09-30T12:21:57.707Z,6.9
2023-09-30T12:22:57.270Z,7.0
2023-09-30T12:23:58.201Z,7.0
2023-09-30T12:24:57.904Z,6.3
2023-09-30T12:26:10.821Z,6.8
2023-09-30T12:26:57.497Z,7.1
2023-09-30T12:27:57.287Z,7.1
2023-09-30T12:28:57.633Z,7.1
2023-09-30T12:29:57.241Z,6.1
2023-09-30T12:30:57.566Z,7.1
2023-09-30T12:31:57.458Z,5.8
2023-09-30T12:32:58.129Z,7.4
2023-09-30T12:33:57.857Z,6.8
2023-09-30T12:34:57.549Z,7.0
2023-09-30T12:35:57.349Z,6.7
2023-09-30T12:36:58.567Z,6.7
2023-09-30T12:37:57.826Z,6.6
2023-09-30T12:38:57.836Z,6.5
2023-09-30T12:39:57.520Z,7.5
2023-09-30T12:40:57.686Z,7.2
2023-09-30T12:41:57.517Z,6.3
2023-09-30T12:42:57.346Z,6.0
2023-09-30T12:43:57.950Z,6.9
2023-09-30T12:44:57.596Z,6.8
2023-09-30T12:45:58.020Z,6.9
2023-09-30T12:46:57.881Z,6.5
2023-09-30T12:47:57.678Z,6.1
2023-09-30T12:48:57.732Z,6.8
2023-09-30T12:49:57.322Z,6.3
2023-09-30T12:50:58.257Z,7.1
2023-09-30T12:51:57.270Z,6.4
2023-09-30T12:52:58.328Z,6.3
2023-09-30T12:53:57.769Z,6.2
2023-09-30T12:54:57.564Z,5.7
2023-09-30T12:55:57.341Z,6.6
2023-09-30T12:56:57.992Z,5.8
2023-09-30T12:57:57.931Z,6.3
2023-09-30T12:58:58.081Z,6.2
2023-09-30T12:59:57.576Z,6.6
2023-09-30T13:01:04.856Z,7.7
2023-09-30T13:01:57.951Z,5.7
2023-09-30T13:02:57.384Z,7.5
2023-09-30T13:03:58.134Z,6.9
2023-09-30T13:04:57.342Z,7.4
2023-09-30T13:05:58.032Z,6.0
2023-09-30T13:06:57.830Z,6.6
2023-09-30T13:07:57.562Z,6.2
2023-09-30T13:08:57.677Z,6.3
2023-09-30T13:09:57.358Z,7.6
2023-09-30T13:10:57.829Z,6.0
2023-09-30T13:11:57.587Z,7.4
2023-09-30T13:12:57.680Z,6.8
2023-09-30T13:13:57.262Z,7.4
2023-09-30T13:14:57.607Z,6.7
2023-09-30T13:15:57.692Z,6.5
2023-09-30T13:16:58.108Z,6.7
2023-09-30T13:17:57.830Z,6.0
2023-09-30T13:18:57.861Z,6.4
2023-09-30T13:19:58.366Z,6.0
2023-09-30T13:20:57.200Z,6.5
2023-09-30T13:21:57.896Z,6.1
2023-09-30T13:22:57.629Z,5.8
2023-09-30T13:23:57.447Z,7.1
2023-09-30T13:24:57.433Z,6.0
2023-09-30T13:25:57.990Z,6.0
2023-09-30T13:26:57.804Z,6.0
2023-09-30T13:27:57.590Z,7.2
2023-09-30T13:28:57.559Z,6.9
2023-09-30T13:29:57.739Z,6.4
2023-09-30T13:30:57.497Z,6.7
2023-09-30T13:31:57.324Z,7.1
2023-09-30T13:32:58.034Z,6.7
2023-09-30T13:33:57.695Z,6.6
2023-09-30T13:34:57.671Z,6.2
2023-09-30T13:35:57.282Z,5.9
2023-09-30T13:36:58.001Z,7.0
2023-09-30T13:37:57.368Z,6.0
2023-09-30T13:38:58.255Z,7.0
2023-09-30T13:39:58.011Z,7.8
2023-09-30T13:40:57.655Z,9.0
2023-09-30T13:41:57.463Z,8.8
2023-09-30T13:42:57.322Z,9.1
2023-09-30T13:43:57.467Z,7.5
2023-09-30T13:44:57.268Z,7.8
2023-09-30T13:45:58.064Z,8.7